Kennicott — WCY2920 — position and weather

sailwx.info

Track history (hours):
 
Tides and Currents Weather Stations Pressure Air Temp Water Temp Dewpoint Dewpoint Depression Visibility Wind Speed Wind Dir Waves Ship Positions

Kennicott

Owner: ALASKA, STATE OF, Anchorage, AK. More information available from US FCC via Universal Licensing System and Coast Guard Vessel Documentation Center.

Last reported at 2017-Jul-22 12:28 UTC. Time now 2017-Jul-22 12:42 UTC.
Position N 48°50' W 123°02'.

Type: Ship. MMSI: 368250000.

Date/timePositionNaut miles runAvg speedWind from/ knotsBaromVisibWave heightAir tempDewpointWater temp
2017-Jul-22 12:28N 48°50' W 123°02'815.6
2017-Jul-22 11:57N 48°55' W 123°12'815.9
2017-Jul-22 11:28N 49°01' W 123°21'715.5
2017-Jul-22 11:00N 49°06' W 123°28'815.8
2017-Jul-22 10:30N 49°12' W 123°36'816.3
2017-Jul-22 10:00N 49°18' W 123°44'815.5
2017-Jul-22 09:30N 49°21' W 123°55'816.1
2017-Jul-22 09:00N 49°24' W 124°07'816.1
2017-Jul-22 08:30N 49°26' W 124°19'816.3
2017-Jul-22 07:59N 49°31' W 124°28'816.8
2017-Jul-22 07:30N 49°37' W 124°37'917.1
2017-Jul-22 07:00N 49°43' W 124°46'916.8
2017-Jul-22 06:30N 49°49' W 124°56'816.3
2017-Jul-22 06:00N 49°55' W 125°04'815.4
2017-Jul-22 05:31N 50°00' W 125°12'612.4
2017-Jul-22 05:00N 50°06' W 125°17'611.1
2017-Jul-22 04:30N 50°10' W 125°22'612.1
2017-Jul-22 03:59N 50°17' W 125°24'1511.7
2017-Jul-22 02:39N 50°22' W 125°47'4112.9
2017-Jul-21 23:30N 50°33' W 126°48'3 6.8
2017-Jul-21 23:00N 50°30' W 126°48'8329.6 260 / 261019.0 5.4 15.613.6
2017-Jul-21 22:58N 50°35' W 126°58'4 8.9
2017-Jul-21 22:30N 50°37' W 127°04'812.4
2017-Jul-21 21:53N 50°40' W 127°15'614.7
2017-Jul-21 21:30N 50°45' W 127°19'815.9
2017-Jul-21 21:00N 50°48' W 127°31'713.4
2017-Jul-21 20:30N 50°53' W 127°37'816.4
2017-Jul-21 20:00N 50°59' W 127°46'816.0
2017-Jul-21 19:30N 51°07' W 127°50'816.1
2017-Jul-21 19:00N 51°15' W 127°53'916.1
2017-Jul-21 18:28N 51°23' W 127°51'716.1
2017-Jul-21 18:00N 51°31' W 127°51'816.2
2017-Jul-21 17:30N 51°39' W 127°54'816.5
2017-Jul-21 17:00N 51°47' W 127°55'816.7
2017-Jul-21 16:30N 51°55' W 127°56'816.7
2017-Jul-21 16:01N 52°03' W 127°56'815.4
2017-Jul-21 15:31N 52°06' W 128°08'6 9.0
2017-Jul-21 14:53N 52°11' W 128°06'815.1
2017-Jul-21 14:23N 52°15' W 128°17'513.9
2017-Jul-21 14:00N 52°16' W 128°26'612.2
2017-Jul-21 13:31N 52°20' W 128°32'816.3
2017-Jul-21 13:00N 52°28' W 128°27'1016.6
2017-Jul-21 12:25N 52°37' W 128°30'  
2017-Jul-18 18:00N 59°42' W 145°18'226 9.4 120 / 91020.0 1.1 15.013.2
2017-Jul-17 18:00N 57°54' W 151°42'   210 / 101023.0 2.2 13.912.0
2017-Jul-14 23:00N 58°36' W 152°48'59 3.5 070 / 191018.0 0.5 12.212.2
2017-Jul-14 06:00N 58°18' W 151°00'10114.5 270 / 131014.0 5.4 16.1
2017-Jul-13 23:00N 59°30' W 148°42'96 5.6 210 / 21016.5 17.817.8
2017-Jul-13 06:00N 60°00' W 145°42'8812.5 270 / 211017.027.0 16.7
2017-Jul-12 23:00N 59°36' W 142°54'   280 / 161018.027.0 15.615.6
Track history (hours):
 
Tides and Currents Weather Stations Pressure Air Temp Water Temp Dewpoint Dewpoint Depression Visibility Wind Speed Wind Dir Waves Ship Positions

Kennicott

Owner: ALASKA, STATE OF, Anchorage, AK. More information available from US FCC via Universal Licensing System and Coast Guard Vessel Documentation Center.

Last reported at 2017-Jul-22 12:28 UTC. Time now 2017-Jul-22 12:42 UTC.
Position N 48°50' W 123°02'.

Type: Ship. MMSI: 368250000.

Date/timePositionNaut miles runAvg speedWind from/ knotsBaromVisibWave heightAir tempDewpointWater temp
2017-Jul-22 12:28N 48°50' W 123°02'815.6
2017-Jul-22 11:57N 48°55' W 123°12'815.9
2017-Jul-22 11:28N 49°01' W 123°21'715.5
2017-Jul-22 11:00N 49°06' W 123°28'815.8
2017-Jul-22 10:30N 49°12' W 123°36'816.3
2017-Jul-22 10:00N 49°18' W 123°44'815.5
2017-Jul-22 09:30N 49°21' W 123°55'816.1
2017-Jul-22 09:00N 49°24' W 124°07'816.1
2017-Jul-22 08:30N 49°26' W 124°19'816.3
2017-Jul-22 07:59N 49°31' W 124°28'816.8
2017-Jul-22 07:30N 49°37' W 124°37'917.1
2017-Jul-22 07:00N 49°43' W 124°46'916.8
2017-Jul-22 06:30N 49°49' W 124°56'816.3
2017-Jul-22 06:00N 49°55' W 125°04'815.4
2017-Jul-22 05:31N 50°00' W 125°12'612.4
2017-Jul-22 05:00N 50°06' W 125°17'611.1
2017-Jul-22 04:30N 50°10' W 125°22'612.1
2017-Jul-22 03:59N 50°17' W 125°24'1511.7
2017-Jul-22 02:39N 50°22' W 125°47'4112.9
2017-Jul-21 23:30N 50°33' W 126°48'3 6.8
2017-Jul-21 23:00N 50°30' W 126°48'8329.6 260 / 261019.0 5.4 15.613.6
2017-Jul-21 22:58N 50°35' W 126°58'4 8.9
2017-Jul-21 22:30N 50°37' W 127°04'812.4
2017-Jul-21 21:53N 50°40' W 127°15'614.7
2017-Jul-21 21:30N 50°45' W 127°19'815.9
2017-Jul-21 21:00N 50°48' W 127°31'713.4
2017-Jul-21 20:30N 50°53' W 127°37'816.4
2017-Jul-21 20:00N 50°59' W 127°46'816.0
2017-Jul-21 19:30N 51°07' W 127°50'816.1
2017-Jul-21 19:00N 51°15' W 127°53'916.1
2017-Jul-21 18:28N 51°23' W 127°51'716.1
2017-Jul-21 18:00N 51°31' W 127°51'816.2
2017-Jul-21 17:30N 51°39' W 127°54'816.5
2017-Jul-21 17:00N 51°47' W 127°55'816.7
2017-Jul-21 16:30N 51°55' W 127°56'816.7
2017-Jul-21 16:01N 52°03' W 127°56'815.4
2017-Jul-21 15:31N 52°06' W 128°08'6 9.0
2017-Jul-21 14:53N 52°11' W 128°06'815.1
2017-Jul-21 14:23N 52°15' W 128°17'513.9
2017-Jul-21 14:00N 52°16' W 128°26'612.2
2017-Jul-21 13:31N 52°20' W 128°32'816.3
2017-Jul-21 13:00N 52°28' W 128°27'1016.6
2017-Jul-21 12:25N 52°37' W 128°30'  
2017-Jul-18 18:00N 59°42' W 145°18'226 9.4 120 / 91020.0 1.1 15.013.2
2017-Jul-17 18:00N 57°54' W 151°42'   210 / 101023.0 2.2 13.912.0
2017-Jul-14 23:00N 58°36' W 152°48'59 3.5 070 / 191018.0 0.5 12.212.2
2017-Jul-14 06:00N 58°18' W 151°00'10114.5 270 / 131014.0 5.4 16.1
2017-Jul-13 23:00N 59°30' W 148°42'96 5.6 210 / 21016.5 17.817.8
2017-Jul-13 06:00N 60°00' W 145°42'8812.5 270 / 211017.027.0 16.7
2017-Jul-12 23:00N 59°36' W 142°54'   280 / 161018.027.0 15.615.6

Dump ship's entire track history